sensor_id;sensor_type;location;lat;lon;timestamp;P1;durP1;ratioP1;P2;durP2;ratioP2
17261;SDS011;9873;52.236;21.002;2023-02-26T00:03:42;2.53;;;2.27;;
17261;SDS011;9873;52.236;21.002;2023-02-26T00:13:47;5.17;;;3.10;;
17261;SDS011;9873;52.236;21.002;2023-02-26T00:23:55;3.20;;;2.43;;
17261;SDS011;9873;52.236;21.002;2023-02-26T00:34:09;2.90;;;2.13;;
17261;SDS011;9873;52.236;21.002;2023-02-26T00:44:13;3.13;;;2.70;;
17261;SDS011;9873;52.236;21.002;2023-02-26T00:54:19;3.83;;;2.70;;
17261;SDS011;9873;52.236;21.002;2023-02-26T01:04:25;2.03;;;1.70;;
17261;SDS011;9873;52.236;21.002;2023-02-26T01:14:30;3.07;;;2.20;;
17261;SDS011;9873;52.236;21.002;2023-02-26T01:24:38;4.43;;;2.60;;
17261;SDS011;9873;52.236;21.002;2023-02-26T01:34:47;4.23;;;2.40;;
17261;SDS011;9873;52.236;21.002;2023-02-26T01:45:00;3.50;;;2.60;;
17261;SDS011;9873;52.236;21.002;2023-02-26T01:55:27;3.63;;;2.70;;
17261;SDS011;9873;52.236;21.002;2023-02-26T02:05:38;2.97;;;2.47;;
17261;SDS011;9873;52.236;21.002;2023-02-26T02:15:57;4.20;;;2.50;;
17261;SDS011;9873;52.236;21.002;2023-02-26T02:46:51;5.00;;;2.90;;
17261;SDS011;9873;52.236;21.002;2023-02-26T02:56:59;2.43;;;2.07;;
17261;SDS011;9873;52.236;21.002;2023-02-26T03:07:07;3.27;;;2.53;;
17261;SDS011;9873;52.236;21.002;2023-02-26T03:27:38;3.90;;;2.77;;
17261;SDS011;9873;52.236;21.002;2023-02-26T03:37:45;2.83;;;2.07;;
17261;SDS011;9873;52.236;21.002;2023-02-26T03:47:50;3.00;;;2.10;;
17261;SDS011;9873;52.236;21.002;2023-02-26T03:57:57;3.00;;;2.07;;
17261;SDS011;9873;52.236;21.002;2023-02-26T04:08:10;2.73;;;2.20;;
17261;SDS011;9873;52.236;21.002;2023-02-26T04:18:15;2.80;;;2.40;;
17261;SDS011;9873;52.236;21.002;2023-02-26T04:28:20;2.60;;;2.00;;
17261;SDS011;9873;52.236;21.002;2023-02-26T04:38:29;4.93;;;2.20;;
17261;SDS011;9873;52.236;21.002;2023-02-26T04:48:31;2.23;;;1.70;;
17261;SDS011;9873;52.236;21.002;2023-02-26T04:58:34;3.03;;;1.63;;
17261;SDS011;9873;52.236;21.002;2023-02-26T05:08:45;1.77;;;1.63;;
17261;SDS011;9873;52.236;21.002;2023-02-26T05:18:47;2.50;;;1.93;;
17261;SDS011;9873;52.236;21.002;2023-02-26T05:28:49;3.63;;;2.83;;
17261;SDS011;9873;52.236;21.002;2023-02-26T05:38:53;4.17;;;2.50;;
17261;SDS011;9873;52.236;21.002;2023-02-26T05:48:55;2.83;;;2.57;;
17261;SDS011;9873;52.236;21.002;2023-02-26T05:58:59;3.73;;;2.20;;
17261;SDS011;9873;52.236;21.002;2023-02-26T06:09:02;3.27;;;1.40;;
17261;SDS011;9873;52.236;21.002;2023-02-26T06:19:06;5.13;;;1.30;;
17261;SDS011;9873;52.236;21.002;2023-02-26T06:29:13;3.20;;;1.90;;
17261;SDS011;9873;52.236;21.002;2023-02-26T06:39:18;1.70;;;1.47;;
17261;SDS011;9873;52.236;21.002;2023-02-26T06:49:24;2.13;;;1.53;;
17261;SDS011;9873;52.236;21.002;2023-02-26T06:59:26;2.23;;;1.67;;
17261;SDS011;9873;52.236;21.002;2023-02-26T07:09:29;3.17;;;1.70;;
17261;SDS011;9873;52.236;21.002;2023-02-26T07:19:34;1.83;;;1.60;;
17261;SDS011;9873;52.236;21.002;2023-02-26T07:29:38;1.80;;;1.40;;
17261;SDS011;9873;52.236;21.002;2023-02-26T07:39:42;3.57;;;1.90;;
17261;SDS011;9873;52.236;21.002;2023-02-26T07:49:46;3.07;;;1.70;;
17261;SDS011;9873;52.236;21.002;2023-02-26T07:59:51;3.10;;;2.00;;
17261;SDS011;9873;52.236;21.002;2023-02-26T08:09:53;3.93;;;2.03;;
17261;SDS011;9873;52.236;21.002;2023-02-26T08:19:55;2.37;;;1.93;;
17261;SDS011;9873;52.236;21.002;2023-02-26T08:30:02;2.17;;;1.73;;
17261;SDS011;9873;52.236;21.002;2023-02-26T08:40:08;1.60;;;1.03;;
17261;SDS011;9873;52.236;21.002;2023-02-26T08:50:12;2.53;;;1.50;;
17261;SDS011;9873;52.236;21.002;2023-02-26T09:00:16;1.30;;;1.20;;
17261;SDS011;9873;52.236;21.002;2023-02-26T09:10:22;1.33;;;1.23;;
17261;SDS011;9873;52.236;21.002;2023-02-26T09:20:25;2.33;;;1.50;;
17261;SDS011;9873;52.236;21.002;2023-02-26T09:30:34;1.63;;;1.50;;
17261;SDS011;9873;52.236;21.002;2023-02-26T09:50:48;2.70;;;2.07;;
17261;SDS011;9873;52.236;21.002;2023-02-26T10:11:13;2.00;;;1.73;;
17261;SDS011;9873;52.236;21.002;2023-02-26T10:21:22;3.93;;;2.33;;
17261;SDS011;9873;52.236;21.002;2023-02-26T10:41:39;4.37;;;2.47;;
17261;SDS011;9873;52.236;21.002;2023-02-26T10:51:43;3.47;;;2.10;;
17261;SDS011;9873;52.236;21.002;2023-02-26T11:01:48;5.10;;;2.07;;
17261;SDS011;9873;52.236;21.002;2023-02-26T11:22:10;2.23;;;1.40;;
17261;SDS011;9873;52.236;21.002;2023-02-26T11:32:17;2.60;;;1.30;;
17261;SDS011;9873;52.236;21.002;2023-02-26T11:42:21;1.83;;;1.57;;
17261;SDS011;9873;52.236;21.002;2023-02-26T11:52:28;1.50;;;1.40;;
17261;SDS011;9873;52.236;21.002;2023-02-26T12:02:39;1.70;;;1.50;;
17261;SDS011;9873;52.236;21.002;2023-02-26T12:12:45;2.27;;;2.00;;
17261;SDS011;9873;52.236;21.002;2023-02-26T12:23:04;3.27;;;2.47;;
17261;SDS011;9873;52.236;21.002;2023-02-26T12:43:55;4.33;;;1.70;;
17261;SDS011;9873;52.236;21.002;2023-02-26T12:54:14;3.20;;;1.80;;
17261;SDS011;9873;52.236;21.002;2023-02-26T13:35:53;3.67;;;1.57;;
17261;SDS011;9873;52.236;21.002;2023-02-26T14:06:41;2.73;;;1.90;;
17261;SDS011;9873;52.236;21.002;2023-02-26T14:27:24;1.27;;;1.13;;
17261;SDS011;9873;52.236;21.002;2023-02-26T14:37:40;2.47;;;1.30;;
17261;SDS011;9873;52.236;21.002;2023-02-26T14:47:43;3.23;;;1.50;;
17261;SDS011;9873;52.236;21.002;2023-02-26T14:57:52;3.07;;;1.57;;
17261;SDS011;9873;52.236;21.002;2023-02-26T15:08:06;3.57;;;2.10;;
17261;SDS011;9873;52.236;21.002;2023-02-26T15:28:41;2.77;;;1.50;;
17261;SDS011;9873;52.236;21.002;2023-02-26T15:38:52;4.33;;;2.00;;
17261;SDS011;9873;52.236;21.002;2023-02-26T15:49:04;2.50;;;2.30;;
17261;SDS011;9873;52.236;21.002;2023-02-26T15:59:18;2.20;;;1.77;;
17261;SDS011;9873;52.236;21.002;2023-02-26T16:09:35;2.73;;;1.47;;
17261;SDS011;9873;52.236;21.002;2023-02-26T16:19:47;7.00;;;3.40;;
17261;SDS011;9873;52.236;21.002;2023-02-26T16:29:55;2.70;;;1.70;;
17261;SDS011;9873;52.236;21.002;2023-02-26T16:50:25;5.97;;;1.90;;
17261;SDS011;9873;52.236;21.002;2023-02-26T17:00:33;4.50;;;1.90;;
17261;SDS011;9873;52.236;21.002;2023-02-26T17:10:47;4.10;;;2.43;;
17261;SDS011;9873;52.236;21.002;2023-02-26T17:20:56;7.93;;;2.77;;
17261;SDS011;9873;52.236;21.002;2023-02-26T17:31:04;5.33;;;2.53;;
17261;SDS011;9873;52.236;21.002;2023-02-26T17:41:07;8.13;;;3.13;;
17261;SDS011;9873;52.236;21.002;2023-02-26T17:51:10;4.80;;;3.20;;
17261;SDS011;9873;52.236;21.002;2023-02-26T18:01:25;5.80;;;3.03;;
17261;SDS011;9873;52.236;21.002;2023-02-26T18:11:33;7.73;;;3.93;;
17261;SDS011;9873;52.236;21.002;2023-02-26T18:21:42;10.47;;;3.73;;
17261;SDS011;9873;52.236;21.002;2023-02-26T18:31:47;6.57;;;4.00;;
17261;SDS011;9873;52.236;21.002;2023-02-26T18:41:51;6.73;;;2.93;;
17261;SDS011;9873;52.236;21.002;2023-02-26T18:51:56;8.10;;;3.53;;
17261;SDS011;9873;52.236;21.002;2023-02-26T19:02:00;6.27;;;3.30;;
17261;SDS011;9873;52.236;21.002;2023-02-26T19:12:07;7.03;;;3.67;;
17261;SDS011;9873;52.236;21.002;2023-02-26T19:22:14;5.60;;;3.10;;
17261;SDS011;9873;52.236;21.002;2023-02-26T19:32:16;7.00;;;2.43;;
17261;SDS011;9873;52.236;21.002;2023-02-26T19:42:19;4.13;;;2.10;;
17261;SDS011;9873;52.236;21.002;2023-02-26T19:52:22;4.60;;;2.57;;
17261;SDS011;9873;52.236;21.002;2023-02-26T20:02:26;4.03;;;2.10;;
17261;SDS011;9873;52.236;21.002;2023-02-26T20:12:31;3.40;;;2.17;;
17261;SDS011;9873;52.236;21.002;2023-02-26T20:22:33;3.23;;;2.17;;
17261;SDS011;9873;52.236;21.002;2023-02-26T20:32:35;2.77;;;2.07;;
17261;SDS011;9873;52.236;21.002;2023-02-26T20:42:43;4.47;;;2.30;;
17261;SDS011;9873;52.236;21.002;2023-02-26T20:52:45;4.70;;;2.13;;
17261;SDS011;9873;52.236;21.002;2023-02-26T21:02:47;2.37;;;1.90;;
17261;SDS011;9873;52.236;21.002;2023-02-26T21:12:52;2.37;;;1.60;;
17261;SDS011;9873;52.236;21.002;2023-02-26T21:22:59;5.27;;;2.40;;
17261;SDS011;9873;52.236;21.002;2023-02-26T21:33:04;4.43;;;2.40;;
17261;SDS011;9873;52.236;21.002;2023-02-26T21:43:11;6.13;;;3.30;;
17261;SDS011;9873;52.236;21.002;2023-02-26T21:53:18;6.80;;;2.70;;
17261;SDS011;9873;52.236;21.002;2023-02-26T22:03:23;4.80;;;2.30;;
17261;SDS011;9873;52.236;21.002;2023-02-26T22:13:26;6.17;;;2.80;;
17261;SDS011;9873;52.236;21.002;2023-02-26T22:23:28;3.03;;;2.10;;
17261;SDS011;9873;52.236;21.002;2023-02-26T22:33:32;8.17;;;2.80;;
17261;SDS011;9873;52.236;21.002;2023-02-26T22:43:36;5.23;;;2.53;;
17261;SDS011;9873;52.236;21.002;2023-02-26T22:53:38;4.47;;;2.47;;
17261;SDS011;9873;52.236;21.002;2023-02-26T23:03:46;4.83;;;2.27;;
17261;SDS011;9873;52.236;21.002;2023-02-26T23:13:50;4.43;;;2.53;;
17261;SDS011;9873;52.236;21.002;2023-02-26T23:23:53;4.20;;;2.00;;
17261;SDS011;9873;52.236;21.002;2023-02-26T23:33:55;4.33;;;1.67;;
17261;SDS011;9873;52.236;21.002;2023-02-26T23:44:01;5.53;;;1.97;;
17261;SDS011;9873;52.236;21.002;2023-02-26T23:54:03;4.00;;;2.30;;
